sensor_id;sensor_type;location;lat;lon;timestamp;pressure;altitude;pressure_sealevel;temperature
74043;BMP280;62384;53.600;10.040;2022-08-06T00:02:09;101685.44;;;15.04
74043;BMP280;62384;53.600;10.040;2022-08-06T00:04:35;101640.41;;;14.93
74043;BMP280;62384;53.600;10.040;2022-08-06T00:07:00;101665.09;;;14.91
74043;BMP280;62384;53.600;10.040;2022-08-06T00:09:26;101676.34;;;14.93
74043;BMP280;62384;53.600;10.040;2022-08-06T00:12:01;101663.13;;;14.88
74043;BMP280;62384;53.600;10.040;2022-08-06T00:14:28;101656.44;;;14.82
74043;BMP280;62384;53.600;10.040;2022-08-06T00:16:53;101644.53;;;14.87
74043;BMP280;62384;53.600;10.040;2022-08-06T00:19:19;101648.81;;;14.88
74043;BMP280;62384;53.600;10.040;2022-08-06T00:21:44;101661.47;;;14.84
74043;BMP280;62384;53.600;10.040;2022-08-06T00:24:09;101671.94;;;14.85
74043;BMP280;62384;53.600;10.040;2022-08-06T00:26:34;101632.69;;;14.72
74043;BMP280;62384;53.600;10.040;2022-08-06T00:29:03;101651.63;;;14.72
74043;BMP280;62384;53.600;10.040;2022-08-06T00:31:29;101623.41;;;14.50
74043;BMP280;62384;53.600;10.040;2022-08-06T00:33:54;101679.38;;;14.88
74043;BMP280;62384;53.600;10.040;2022-08-06T00:36:21;101655.59;;;14.78
74043;BMP280;62384;53.600;10.040;2022-08-06T00:38:47;101644.22;;;14.69
74043;BMP280;62384;53.600;10.040;2022-08-06T00:41:13;101649.94;;;14.64
74043;BMP280;62384;53.600;10.040;2022-08-06T00:43:40;101609.41;;;14.64
74043;BMP280;62384;53.600;10.040;2022-08-06T00:46:07;101625.25;;;14.66
74043;BMP280;62384;53.600;10.040;2022-08-06T00:48:32;101632.59;;;14.65
74043;BMP280;62384;53.600;10.040;2022-08-06T00:50:57;101646.97;;;14.73
74043;BMP280;62384;53.600;10.040;2022-08-06T00:53:22;101641.84;;;14.64
74043;BMP280;62384;53.600;10.040;2022-08-06T00:55:48;101650.41;;;14.70
74043;BMP280;62384;53.600;10.040;2022-08-06T00:58:13;101631.25;;;14.56
74043;BMP280;62384;53.600;10.040;2022-08-06T01:00:38;101641.47;;;14.66
74043;BMP280;62384;53.600;10.040;2022-08-06T01:03:04;101651.34;;;14.77
74043;BMP280;62384;53.600;10.040;2022-08-06T01:05:29;101665.03;;;14.65
74043;BMP280;62384;53.600;10.040;2022-08-06T01:07:54;101670.91;;;14.71
74043;BMP280;62384;53.600;10.040;2022-08-06T01:10:20;101650.34;;;14.66
74043;BMP280;62384;53.600;10.040;2022-08-06T01:12:47;101644.75;;;14.56
74043;BMP280;62384;53.600;10.040;2022-08-06T01:15:12;101615.44;;;14.58
74043;BMP280;62384;53.600;10.040;2022-08-06T01:17:57;101654.78;;;14.55
74043;BMP280;62384;53.600;10.040;2022-08-06T01:20:38;101621.09;;;14.49
74043;BMP280;62384;53.600;10.040;2022-08-06T01:31:17;101619.78;;;14.43
74043;BMP280;62384;53.600;10.040;2022-08-06T01:33:47;101615.41;;;14.35
74043;BMP280;62384;53.600;10.040;2022-08-06T01:36:21;101629.31;;;14.37
74043;BMP280;62384;53.600;10.040;2022-08-06T01:38:50;101602.75;;;14.39
74043;BMP280;62384;53.600;10.040;2022-08-06T01:41:21;101607.97;;;14.28
74043;BMP280;62384;53.600;10.040;2022-08-06T01:44:07;101632.47;;;14.39
74043;BMP280;62384;53.600;10.040;2022-08-06T01:46:36;101608.44;;;14.34
74043;BMP280;62384;53.600;10.040;2022-08-06T01:49:02;101585.97;;;14.30
74043;BMP280;62384;53.600;10.040;2022-08-06T01:51:28;101579.03;;;14.29
74043;BMP280;62384;53.600;10.040;2022-08-06T01:53:54;101590.22;;;14.31
74043;BMP280;62384;53.600;10.040;2022-08-06T01:56:22;101612.63;;;14.31
74043;BMP280;62384;53.600;10.040;2022-08-06T01:58:49;101628.63;;;14.40
74043;BMP280;62384;53.600;10.040;2022-08-06T02:01:16;101611.94;;;14.34
74043;BMP280;62384;53.600;10.040;2022-08-06T02:03:46;101592.03;;;14.23
74043;BMP280;62384;53.600;10.040;2022-08-06T02:06:20;101576.19;;;14.22
74043;BMP280;62384;53.600;10.040;2022-08-06T02:08:47;101588.91;;;14.21
74043;BMP280;62384;53.600;10.040;2022-08-06T02:11:14;101586.53;;;14.20
74043;BMP280;62384;53.600;10.040;2022-08-06T02:13:41;101589.47;;;14.11
74043;BMP280;62384;53.600;10.040;2022-08-06T02:16:09;101581.16;;;14.01
74043;BMP280;62384;53.600;10.040;2022-08-06T02:18:38;101570.66;;;13.96
74043;BMP280;62384;53.600;10.040;2022-08-06T02:21:08;101562.19;;;13.97
74043;BMP280;62384;53.600;10.040;2022-08-06T02:23:35;101560.63;;;13.96
74043;BMP280;62384;53.600;10.040;2022-08-06T02:26:01;101560.91;;;13.91
74043;BMP280;62384;53.600;10.040;2022-08-06T02:28:28;101560.84;;;13.88
74043;BMP280;62384;53.600;10.040;2022-08-06T02:30:56;101554.56;;;13.84
74043;BMP280;62384;53.600;10.040;2022-08-06T02:33:22;101585.84;;;14.04
74043;BMP280;62384;53.600;10.040;2022-08-06T02:35:54;101580.53;;;13.88
74043;BMP280;62384;53.600;10.040;2022-08-06T02:38:49;101569.97;;;13.83
74043;BMP280;62384;53.600;10.040;2022-08-06T02:41:21;101589.34;;;13.85
74043;BMP280;62384;53.600;10.040;2022-08-06T02:43:54;101566.47;;;13.79
74043;BMP280;62384;53.600;10.040;2022-08-06T02:49:20;101587.13;;;13.91
74043;BMP280;62384;53.600;10.040;2022-08-06T02:52:12;101597.22;;;13.94
74043;BMP280;62384;53.600;10.040;2022-08-06T02:54:41;101593.38;;;13.95
74043;BMP280;62384;53.600;10.040;2022-08-06T02:57:12;101593.72;;;13.93
74043;BMP280;62384;53.600;10.040;2022-08-06T02:59:45;101582.84;;;13.90
74043;BMP280;62384;53.600;10.040;2022-08-06T03:02:12;101618.88;;;13.97
74043;BMP280;62384;53.600;10.040;2022-08-06T03:04:40;101588.25;;;13.90
74043;BMP280;62384;53.600;10.040;2022-08-06T03:07:07;101626.03;;;14.05
74043;BMP280;62384;53.600;10.040;2022-08-06T03:09:35;101613.84;;;13.96
74043;BMP280;62384;53.600;10.040;2022-08-06T03:12:01;101630.16;;;13.99
74043;BMP280;62384;53.600;10.040;2022-08-06T03:14:27;101610.94;;;13.85
74043;BMP280;62384;53.600;10.040;2022-08-06T03:16:54;101604.69;;;13.81
74043;BMP280;62384;53.600;10.040;2022-08-06T03:19:20;101552.44;;;13.54
74043;BMP280;62384;53.600;10.040;2022-08-06T03:21:47;101607.28;;;13.78
74043;BMP280;62384;53.600;10.040;2022-08-06T03:24:13;101604.59;;;13.78
74043;BMP280;62384;53.600;10.040;2022-08-06T03:26:39;101625.16;;;13.82
74043;BMP280;62384;53.600;10.040;2022-08-06T03:29:07;101619.66;;;13.79
74043;BMP280;62384;53.600;10.040;2022-08-06T03:31:33;101612.69;;;13.78
74043;BMP280;62384;53.600;10.040;2022-08-06T03:33:58;101597.50;;;13.69
74043;BMP280;62384;53.600;10.040;2022-08-06T03:36:25;101610.47;;;13.83
74043;BMP280;62384;53.600;10.040;2022-08-06T03:38:56;101596.72;;;13.69
74043;BMP280;62384;53.600;10.040;2022-08-06T03:41:27;101620.44;;;13.79
74043;BMP280;62384;53.600;10.040;2022-08-06T03:43:53;101635.66;;;13.87
74043;BMP280;62384;53.600;10.040;2022-08-06T03:46:26;101630.72;;;13.73
74043;BMP280;62384;53.600;10.040;2022-08-06T03:48:53;101606.13;;;13.59
74043;BMP280;62384;53.600;10.040;2022-08-06T03:51:20;101635.84;;;13.79
74043;BMP280;62384;53.600;10.040;2022-08-06T03:53:48;101638.16;;;13.61
74043;BMP280;62384;53.600;10.040;2022-08-06T03:56:18;101640.69;;;13.69
74043;BMP280;62384;53.600;10.040;2022-08-06T03:58:46;101646.16;;;13.73
74043;BMP280;62384;53.600;10.040;2022-08-06T04:01:16;101635.94;;;13.66
74043;BMP280;62384;53.600;10.040;2022-08-06T04:03:43;101644.84;;;13.67
74043;BMP280;62384;53.600;10.040;2022-08-06T04:06:11;101637.72;;;13.59
74043;BMP280;62384;53.600;10.040;2022-08-06T04:08:38;101632.25;;;13.55
74043;BMP280;62384;53.600;10.040;2022-08-06T04:11:05;101611.28;;;13.49
74043;BMP280;62384;53.600;10.040;2022-08-06T04:13:30;101626.34;;;13.50
74043;BMP280;62384;53.600;10.040;2022-08-06T04:15:56;101631.19;;;13.60
74043;BMP280;62384;53.600;10.040;2022-08-06T04:18:32;101635.03;;;13.59
74043;BMP280;62384;53.600;10.040;2022-08-06T04:21:04;101634.50;;;13.53
74043;BMP280;62384;53.600;10.040;2022-08-06T04:23:30;101650.75;;;13.73
74043;BMP280;62384;53.600;10.040;2022-08-06T04:25:57;101650.25;;;13.67
74043;BMP280;62384;53.600;10.040;2022-08-06T04:28:26;101631.38;;;13.51
74043;BMP280;62384;53.600;10.040;2022-08-06T04:30:53;101654.09;;;13.66
74043;BMP280;62384;53.600;10.040;2022-08-06T04:33:22;101653.72;;;13.67
74043;BMP280;62384;53.600;10.040;2022-08-06T04:35:48;101657.53;;;13.66
74043;BMP280;62384;53.600;10.040;2022-08-06T04:38:16;101652.09;;;13.63
74043;BMP280;62384;53.600;10.040;2022-08-06T04:40:42;101643.28;;;13.66
74043;BMP280;62384;53.600;10.040;2022-08-06T04:43:09;101664.53;;;13.67
74043;BMP280;62384;53.600;10.040;2022-08-06T04:45:42;101678.34;;;13.82
74043;BMP280;62384;53.600;10.040;2022-08-06T04:48:09;101679.91;;;13.83
74043;BMP280;62384;53.600;10.040;2022-08-06T04:50:36;101677.94;;;13.80
74043;BMP280;62384;53.600;10.040;2022-08-06T04:53:09;101671.81;;;13.83
74043;BMP280;62384;53.600;10.040;2022-08-06T04:55:35;101699.22;;;13.85
74043;BMP280;62384;53.600;10.040;2022-08-06T04:58:03;101693.28;;;13.95
74043;BMP280;62384;53.600;10.040;2022-08-06T05:00:33;101703.06;;;13.99
74043;BMP280;62384;53.600;10.040;2022-08-06T05:02:58;101720.31;;;14.14
74043;BMP280;62384;53.600;10.040;2022-08-06T05:05:25;101723.91;;;14.18
74043;BMP280;62384;53.600;10.040;2022-08-06T05:07:52;101739.63;;;14.31
74043;BMP280;62384;53.600;10.040;2022-08-06T05:10:18;101761.59;;;14.30
74043;BMP280;62384;53.600;10.040;2022-08-06T05:12:46;101748.16;;;14.33
74043;BMP280;62384;53.600;10.040;2022-08-06T05:15:21;101779.16;;;14.39
74043;BMP280;62384;53.600;10.040;2022-08-06T05:17:56;101785.41;;;14.43
74043;BMP280;62384;53.600;10.040;2022-08-06T05:20:21;101769.19;;;14.43
74043;BMP280;62384;53.600;10.040;2022-08-06T05:22:50;101801.28;;;14.45
74043;BMP280;62384;53.600;10.040;2022-08-06T05:25:16;101762.19;;;14.39
74043;BMP280;62384;53.600;10.040;2022-08-06T05:27:42;101807.06;;;14.63
74043;BMP280;62384;53.600;10.040;2022-08-06T05:30:08;101815.16;;;14.63
74043;BMP280;62384;53.600;10.040;2022-08-06T05:32:44;101828.63;;;14.59
74043;BMP280;62384;53.600;10.040;2022-08-06T05:35:10;101780.03;;;14.63
74043;BMP280;62384;53.600;10.040;2022-08-06T05:37:36;101765.53;;;14.71
74043;BMP280;62384;53.600;10.040;2022-08-06T05:40:03;101785.81;;;14.80
74043;BMP280;62384;53.600;10.040;2022-08-06T05:42:29;101859.69;;;15.03
74043;BMP280;62384;53.600;10.040;2022-08-06T05:44:54;101903.97;;;15.14
74043;BMP280;62384;53.600;10.040;2022-08-06T05:47:24;101976.44;;;15.24
74043;BMP280;62384;53.600;10.040;2022-08-06T05:50:01;101998.91;;;15.44
74043;BMP280;62384;53.600;10.040;2022-08-06T05:52:45;102026.31;;;15.43
74043;BMP280;62384;53.600;10.040;2022-08-06T05:55:18;102021.69;;;15.43
74043;BMP280;62384;53.600;10.040;2022-08-06T05:57:56;102025.81;;;15.56
74043;BMP280;62384;53.600;10.040;2022-08-06T06:00:25;102032.28;;;15.52
74043;BMP280;62384;53.600;10.040;2022-08-06T06:02:54;102022.34;;;15.56
74043;BMP280;62384;53.600;10.040;2022-08-06T06:05:20;102041.13;;;15.49
74043;BMP280;62384;53.600;10.040;2022-08-06T06:07:48;102042.84;;;15.57
74043;BMP280;62384;53.600;10.040;2022-08-06T06:10:14;102038.72;;;15.63
74043;BMP280;62384;53.600;10.040;2022-08-06T06:12:41;102048.75;;;15.62
74043;BMP280;62384;53.600;10.040;2022-08-06T06:15:09;102052.75;;;15.68
74043;BMP280;62384;53.600;10.040;2022-08-06T06:17:57;102039.59;;;15.67
74043;BMP280;62384;53.600;10.040;2022-08-06T06:23:05;102045.88;;;15.71
74043;BMP280;62384;53.600;10.040;2022-08-06T06:25:37;102043.44;;;15.66
74043;BMP280;62384;53.600;10.040;2022-08-06T06:28:33;102025.53;;;15.61
74043;BMP280;62384;53.600;10.040;2022-08-06T06:31:28;102036.84;;;15.86
74043;BMP280;62384;53.600;10.040;2022-08-06T06:34:20;102005.63;;;15.73
74043;BMP280;62384;53.600;10.040;2022-08-06T06:44:01;102052.28;;;16.04
74043;BMP280;62384;53.600;10.040;2022-08-06T06:46:43;102086.66;;;16.20
74043;BMP280;62384;53.600;10.040;2022-08-06T06:49:31;102097.63;;;16.27
74043;BMP280;62384;53.600;10.040;2022-08-06T06:52:09;102096.78;;;16.23
74043;BMP280;62384;53.600;10.040;2022-08-06T06:54:40;102091.91;;;16.32
74043;BMP280;62384;53.600;10.040;2022-08-06T06:57:09;102125.38;;;16.39
74043;BMP280;62384;53.600;10.040;2022-08-06T06:59:39;102120.94;;;16.50
74043;BMP280;62384;53.600;10.040;2022-08-06T07:02:06;102142.78;;;16.61
74043;BMP280;62384;53.600;10.040;2022-08-06T07:04:37;102149.84;;;16.65
74043;BMP280;62384;53.600;10.040;2022-08-06T07:07:04;102186.16;;;16.80
74043;BMP280;62384;53.600;10.040;2022-08-06T07:09:31;102177.22;;;16.79
74043;BMP280;62384;53.600;10.040;2022-08-06T07:11:59;102187.34;;;16.82
74043;BMP280;62384;53.600;10.040;2022-08-06T07:14:27;102191.19;;;16.81
74043;BMP280;62384;53.600;10.040;2022-08-06T07:16:55;102196.03;;;16.91
74043;BMP280;62384;53.600;10.040;2022-08-06T07:19:22;102212.16;;;17.07
74043;BMP280;62384;53.600;10.040;2022-08-06T07:21:49;102225.13;;;17.17
74043;BMP280;62384;53.600;10.040;2022-08-06T07:24:15;102250.06;;;17.23
74043;BMP280;62384;53.600;10.040;2022-08-06T07:26:48;102245.47;;;17.27
74043;BMP280;62384;53.600;10.040;2022-08-06T07:29:15;102262.00;;;17.41
74043;BMP280;62384;53.600;10.040;2022-08-06T07:31:42;102263.03;;;17.59
74043;BMP280;62384;53.600;10.040;2022-08-06T07:34:07;102292.66;;;17.67
74043;BMP280;62384;53.600;10.040;2022-08-06T07:36:37;102291.75;;;17.86
74043;BMP280;62384;53.600;10.040;2022-08-06T07:39:06;102269.94;;;17.79
74043;BMP280;62384;53.600;10.040;2022-08-06T07:41:34;102287.56;;;17.88
74043;BMP280;62384;53.600;10.040;2022-08-06T07:44:01;102292.16;;;18.14
74043;BMP280;62384;53.600;10.040;2022-08-06T07:46:47;102300.44;;;18.25
74043;BMP280;62384;53.600;10.040;2022-08-06T07:49:18;102306.94;;;17.87
74043;BMP280;62384;53.600;10.040;2022-08-06T07:51:45;102278.41;;;17.74
74043;BMP280;62384;53.600;10.040;2022-08-06T07:54:12;102230.84;;;17.61
74043;BMP280;62384;53.600;10.040;2022-08-06T07:56:40;102191.59;;;17.55
74043;BMP280;62384;53.600;10.040;2022-08-06T07:59:07;102193.34;;;17.44
74043;BMP280;62384;53.600;10.040;2022-08-06T08:01:34;102199.41;;;17.60
74043;BMP280;62384;53.600;10.040;2022-08-06T08:04:00;102185.38;;;17.54
74043;BMP280;62384;53.600;10.040;2022-08-06T08:06:45;102200.75;;;17.73
74043;BMP280;62384;53.600;10.040;2022-08-06T08:09:16;102224.09;;;17.77
74043;BMP280;62384;53.600;10.040;2022-08-06T08:11:44;102275.31;;;18.02
74043;BMP280;62384;53.600;10.040;2022-08-06T08:14:13;102289.44;;;17.84
74043;BMP280;62384;53.600;10.040;2022-08-06T08:16:39;102301.94;;;17.89
74043;BMP280;62384;53.600;10.040;2022-08-06T08:19:29;102316.69;;;17.92
74043;BMP280;62384;53.600;10.040;2022-08-06T08:22:04;102300.09;;;18.00
74043;BMP280;62384;53.600;10.040;2022-08-06T08:24:32;102303.09;;;18.18
74043;BMP280;62384;53.600;10.040;2022-08-06T08:26:58;102338.19;;;18.30
74043;BMP280;62384;53.600;10.040;2022-08-06T08:29:25;102368.91;;;18.30
74043;BMP280;62384;53.600;10.040;2022-08-06T08:31:50;102350.66;;;18.31
74043;BMP280;62384;53.600;10.040;2022-08-06T08:34:16;102354.31;;;18.45
74043;BMP280;62384;53.600;10.040;2022-08-06T08:36:41;102346.84;;;18.68
74043;BMP280;62384;53.600;10.040;2022-08-06T08:39:07;102370.34;;;18.83
74043;BMP280;62384;53.600;10.040;2022-08-06T08:41:36;102370.34;;;18.83
74043;BMP280;62384;53.600;10.040;2022-08-06T08:44:04;102371.94;;;18.88
74043;BMP280;62384;53.600;10.040;2022-08-06T08:46:49;102349.78;;;18.90
74043;BMP280;62384;53.600;10.040;2022-08-06T08:49:41;102370.50;;;18.98
74043;BMP280;62384;53.600;10.040;2022-08-06T08:52:09;102384.59;;;19.07
74043;BMP280;62384;53.600;10.040;2022-08-06T08:54:39;102409.63;;;19.23
74043;BMP280;62384;53.600;10.040;2022-08-06T08:57:07;102399.59;;;19.27
74043;BMP280;62384;53.600;10.040;2022-08-06T08:59:35;102401.84;;;19.21
74043;BMP280;62384;53.600;10.040;2022-08-06T09:02:00;102430.91;;;19.10
74043;BMP280;62384;53.600;10.040;2022-08-06T09:04:27;102428.59;;;19.12
74043;BMP280;62384;53.600;10.040;2022-08-06T09:06:53;102427.00;;;19.08
74043;BMP280;62384;53.600;10.040;2022-08-06T09:09:18;102441.38;;;19.08
74043;BMP280;62384;53.600;10.040;2022-08-06T09:11:45;102432.28;;;19.27
74043;BMP280;62384;53.600;10.040;2022-08-06T09:14:11;102449.78;;;19.29
74043;BMP280;62384;53.600;10.040;2022-08-06T09:16:37;102459.59;;;19.34
74043;BMP280;62384;53.600;10.040;2022-08-06T09:19:04;102455.47;;;19.14
74043;BMP280;62384;53.600;10.040;2022-08-06T09:21:31;102450.41;;;19.52
74043;BMP280;62384;53.600;10.040;2022-08-06T09:23:57;102431.28;;;19.96
74043;BMP280;62384;53.600;10.040;2022-08-06T09:26:22;102468.09;;;20.20
74043;BMP280;62384;53.600;10.040;2022-08-06T09:28:48;102466.63;;;20.43
74043;BMP280;62384;53.600;10.040;2022-08-06T09:31:19;102484.13;;;20.28
74043;BMP280;62384;53.600;10.040;2022-08-06T09:34:03;102476.09;;;19.95
74043;BMP280;62384;53.600;10.040;2022-08-06T09:36:41;102491.72;;;20.05
74043;BMP280;62384;53.600;10.040;2022-08-06T09:39:07;102491.16;;;20.29
74043;BMP280;62384;53.600;10.040;2022-08-06T09:41:32;102512.50;;;20.17
74043;BMP280;62384;53.600;10.040;2022-08-06T09:44:09;102500.25;;;19.97
74043;BMP280;62384;53.600;10.040;2022-08-06T09:46:45;102497.75;;;19.77
74043;BMP280;62384;53.600;10.040;2022-08-06T09:49:13;102493.63;;;19.98
74043;BMP280;62384;53.600;10.040;2022-08-06T09:51:40;102502.28;;;20.07
74043;BMP280;62384;53.600;10.040;2022-08-06T09:54:09;102503.03;;;20.00
74043;BMP280;62384;53.600;10.040;2022-08-06T09:56:36;102494.19;;;19.70
74043;BMP280;62384;53.600;10.040;2022-08-06T09:59:06;102495.31;;;19.29
74043;BMP280;62384;53.600;10.040;2022-08-06T10:01:40;102493.06;;;19.38
74043;BMP280;62384;53.600;10.040;2022-08-06T10:04:07;102498.09;;;19.36
74043;BMP280;62384;53.600;10.040;2022-08-06T10:06:50;102473.16;;;19.30
74043;BMP280;62384;53.600;10.040;2022-08-06T10:09:16;102480.94;;;19.32
74043;BMP280;62384;53.600;10.040;2022-08-06T10:11:41;102505.38;;;19.25
74043;BMP280;62384;53.600;10.040;2022-08-06T10:14:24;102497.81;;;19.08
74043;BMP280;62384;53.600;10.040;2022-08-06T10:17:09;102501.91;;;19.64
74043;BMP280;62384;53.600;10.040;2022-08-06T10:19:36;102533.53;;;20.85
74043;BMP280;62384;53.600;10.040;2022-08-06T10:22:13;102566.19;;;21.95
74043;BMP280;62384;53.600;10.040;2022-08-06T10:24:44;102597.81;;;22.63
74043;BMP280;62384;53.600;10.040;2022-08-06T10:27:13;102609.19;;;23.44
74043;BMP280;62384;53.600;10.040;2022-08-06T10:29:50;102612.91;;;24.19
74043;BMP280;62384;53.600;10.040;2022-08-06T10:32:22;102613.69;;;24.16
74043;BMP280;62384;53.600;10.040;2022-08-06T10:34:49;102626.63;;;23.75
74043;BMP280;62384;53.600;10.040;2022-08-06T10:37:18;102628.88;;;24.31
74043;BMP280;62384;53.600;10.040;2022-08-06T10:39:47;102626.88;;;23.36
74043;BMP280;62384;53.600;10.040;2022-08-06T10:42:15;102627.16;;;22.62
74043;BMP280;62384;53.600;10.040;2022-08-06T10:44:41;102603.34;;;21.89
74043;BMP280;62384;53.600;10.040;2022-08-06T10:47:07;102576.19;;;21.07
74043;BMP280;62384;53.600;10.040;2022-08-06T10:49:34;102553.31;;;20.64
74043;BMP280;62384;53.600;10.040;2022-08-06T10:51:59;102544.47;;;20.20
74043;BMP280;62384;53.600;10.040;2022-08-06T10:54:26;102535.31;;;19.98
74043;BMP280;62384;53.600;10.040;2022-08-06T10:56:53;102554.78;;;19.97
74043;BMP280;62384;53.600;10.040;2022-08-06T10:59:19;102572.38;;;20.03
74043;BMP280;62384;53.600;10.040;2022-08-06T11:04:46;102591.97;;;22.50
74043;BMP280;62384;53.600;10.040;2022-08-06T11:07:32;102606.97;;;23.80
74043;BMP280;62384;53.600;10.040;2022-08-06T11:13:56;102619.22;;;24.53
74043;BMP280;62384;53.600;10.040;2022-08-06T11:16:01;102616.97;;;24.78
74043;BMP280;62384;53.600;10.040;2022-08-06T11:18:27;102619.03;;;25.31
74043;BMP280;62384;53.600;10.040;2022-08-06T11:20:53;102611.75;;;25.44
74043;BMP280;62384;53.600;10.040;2022-08-06T11:25:59;102613.13;;;25.29
74043;BMP280;62384;53.600;10.040;2022-08-06T11:30:55;102607.25;;;24.33
74043;BMP280;62384;53.600;10.040;2022-08-06T11:36:06;102615.63;;;23.75
74043;BMP280;62384;53.600;10.040;2022-08-06T11:46:28;102604.13;;;25.28
74043;BMP280;62384;53.600;10.040;2022-08-06T11:51:47;102607.88;;;25.11
74043;BMP280;62384;53.600;10.040;2022-08-06T11:54:23;102594.66;;;24.39
74043;BMP280;62384;53.600;10.040;2022-08-06T11:59:23;102616.06;;;22.97
74043;BMP280;62384;53.600;10.040;2022-08-06T12:01:49;102606.03;;;22.52
74043;BMP280;62384;53.600;10.040;2022-08-06T12:04:50;102606.38;;;22.68
74043;BMP280;62384;53.600;10.040;2022-08-06T12:07:27;102607.97;;;22.66
74043;BMP280;62384;53.600;10.040;2022-08-06T12:12:46;102596.19;;;22.79
74043;BMP280;62384;53.600;10.040;2022-08-06T12:17:42;102608.00;;;22.52
74043;BMP280;62384;53.600;10.040;2022-08-06T12:20:43;102609.19;;;22.16
74043;BMP280;62384;53.600;10.040;2022-08-06T12:23:14;102610.38;;;22.25
74043;BMP280;62384;53.600;10.040;2022-08-06T12:25:47;102609.19;;;22.26
74043;BMP280;62384;53.600;10.040;2022-08-06T12:28:16;102609.97;;;22.27
74043;BMP280;62384;53.600;10.040;2022-08-06T12:30:44;102604.84;;;22.60
74043;BMP280;62384;53.600;10.040;2022-08-06T12:33:11;102600.47;;;22.84
74043;BMP280;62384;53.600;10.040;2022-08-06T12:35:54;102596.31;;;23.34
74043;BMP280;62384;53.600;10.040;2022-08-06T12:38:22;102604.22;;;23.25
74043;BMP280;62384;53.600;10.040;2022-08-06T12:40:55;102595.66;;;23.74
74043;BMP280;62384;53.600;10.040;2022-08-06T12:43:21;102610.88;;;23.21
74043;BMP280;62384;53.600;10.040;2022-08-06T12:45:46;102613.50;;;23.42
74043;BMP280;62384;53.600;10.040;2022-08-06T12:48:12;102602.31;;;23.73
74043;BMP280;62384;53.600;10.040;2022-08-06T12:50:43;102600.78;;;24.54
74043;BMP280;62384;53.600;10.040;2022-08-06T12:53:14;102607.63;;;25.29
74043;BMP280;62384;53.600;10.040;2022-08-06T12:55:53;102607.97;;;26.04
74043;BMP280;62384;53.600;10.040;2022-08-06T12:58:20;102603.50;;;26.33
74043;BMP280;62384;53.600;10.040;2022-08-06T13:00:53;102595.25;;;26.52
74043;BMP280;62384;53.600;10.040;2022-08-06T13:03:21;102609.69;;;27.12
74043;BMP280;62384;53.600;10.040;2022-08-06T13:05:47;102606.69;;;27.38
74043;BMP280;62384;53.600;10.040;2022-08-06T13:08:13;102588.78;;;26.95
74043;BMP280;62384;53.600;10.040;2022-08-06T13:10:39;102600.75;;;26.88
74043;BMP280;62384;53.600;10.040;2022-08-06T13:13:11;102611.97;;;26.42
74043;BMP280;62384;53.600;10.040;2022-08-06T13:15:37;102609.22;;;26.42
74043;BMP280;62384;53.600;10.040;2022-08-06T13:18:07;102613.97;;;25.76
74043;BMP280;62384;53.600;10.040;2022-08-06T13:23:01;102609.19;;;25.80
74043;BMP280;62384;53.600;10.040;2022-08-06T13:25:27;102612.84;;;24.63
74043;BMP280;62384;53.600;10.040;2022-08-06T13:28:10;102600.94;;;23.99
74043;BMP280;62384;53.600;10.040;2022-08-06T13:30:36;102586.50;;;23.88
74043;BMP280;62384;53.600;10.040;2022-08-06T13:33:19;102593.38;;;23.66
74043;BMP280;62384;53.600;10.040;2022-08-06T13:35:47;102601.63;;;23.59
74043;BMP280;62384;53.600;10.040;2022-08-06T13:38:27;102607.94;;;23.56
74043;BMP280;62384;53.600;10.040;2022-08-06T13:40:53;102595.63;;;23.16
74043;BMP280;62384;53.600;10.040;2022-08-06T13:43:20;102593.28;;;23.18
74043;BMP280;62384;53.600;10.040;2022-08-06T13:45:46;102583.09;;;23.15
74043;BMP280;62384;53.600;10.040;2022-08-06T13:48:12;102590.81;;;23.34
74043;BMP280;62384;53.600;10.040;2022-08-06T13:50:40;102576.06;;;23.14
74043;BMP280;62384;53.600;10.040;2022-08-06T13:53:07;102598.06;;;23.69
74043;BMP280;62384;53.600;10.040;2022-08-06T13:55:37;102595.47;;;23.41
74043;BMP280;62384;53.600;10.040;2022-08-06T13:58:03;102583.09;;;23.19
74043;BMP280;62384;53.600;10.040;2022-08-06T14:00:29;102594.13;;;23.01
74043;BMP280;62384;53.600;10.040;2022-08-06T14:02:54;102591.47;;;22.83
74043;BMP280;62384;53.600;10.040;2022-08-06T14:05:21;102587.47;;;23.06
74043;BMP280;62384;53.600;10.040;2022-08-06T14:07:47;102591.03;;;22.99
74043;BMP280;62384;53.600;10.040;2022-08-06T14:10:13;102596.22;;;22.72
74043;BMP280;62384;53.600;10.040;2022-08-06T14:12:38;102593.09;;;22.74
74043;BMP280;62384;53.600;10.040;2022-08-06T14:15:04;102595.41;;;22.75
74043;BMP280;62384;53.600;10.040;2022-08-06T14:17:30;102597.81;;;22.52
74043;BMP280;62384;53.600;10.040;2022-08-06T14:19:55;102591.91;;;22.64
74043;BMP280;62384;53.600;10.040;2022-08-06T14:22:21;102593.00;;;22.91
74043;BMP280;62384;53.600;10.040;2022-08-06T14:24:46;102598.94;;;22.69
74043;BMP280;62384;53.600;10.040;2022-08-06T14:27:12;102596.22;;;22.69
74043;BMP280;62384;53.600;10.040;2022-08-06T14:29:37;102600.53;;;22.73
74043;BMP280;62384;53.600;10.040;2022-08-06T14:32:04;102612.22;;;22.77
74043;BMP280;62384;53.600;10.040;2022-08-06T14:34:31;102599.69;;;22.83
74043;BMP280;62384;53.600;10.040;2022-08-06T14:36:56;102603.25;;;22.77
74043;BMP280;62384;53.600;10.040;2022-08-06T14:39:22;102552.88;;;22.43
74043;BMP280;62384;53.600;10.040;2022-08-06T14:41:48;102607.97;;;22.48
74043;BMP280;62384;53.600;10.040;2022-08-06T14:44:32;102607.97;;;22.48
74043;BMP280;62384;53.600;10.040;2022-08-06T14:47:16;102607.66;;;22.11
74043;BMP280;62384;53.600;10.040;2022-08-06T14:49:41;102600.59;;;22.00
74043;BMP280;62384;53.600;10.040;2022-08-06T14:52:07;102586.50;;;21.66
74043;BMP280;62384;53.600;10.040;2022-08-06T14:54:33;102590.75;;;21.53